Time;durP1;ratioP1;P1;durP2;ratioP2;P2;SDS_P1;SDS_P2;PMS_P1;PMS_P2;Temp;Humidity;BMP_temperature;BMP_pressure;BME280_temperature;BME280_humidity;BME280_pressure;Samples;Min_cycle;Max_cycle;Signal;HPM_P1;HPM_P2
2021/07/03 00:01:51;;;;;;;19.20;13.97;;;15.90;99.90;;;;;;5111841;28;20208;-79
2021/07/03 00:04:18;;;;;;;18.67;13.87;;;15.90;99.90;;;;;;5115711;27;20249;-80
2021/07/03 00:06:46;;;;;;;15.23;13.63;;;15.90;99.90;;;;;;5107057;28;20198;-79
2021/07/03 00:09:14;;;;;;;18.07;13.20;;;15.90;99.90;;;;;;5098992;28;20293;-80
2021/07/03 00:11:41;;;;;;;19.03;14.00;;;15.90;99.90;;;;;;5103910;28;20603;-79
2021/07/03 00:14:08;;;;;;;16.23;14.10;;;16.00;99.90;;;;;;5097720;28;20278;-80
2021/07/03 00:16:36;;;;;;;18.93;14.03;;;16.00;99.90;;;;;;5095367;28;20646;-80
2021/07/03 00:19:03;;;;;;;17.60;13.30;;;15.90;99.90;;;;;;5098834;28;20316;-80
2021/07/03 00:21:30;;;;;;;15.37;12.93;;;15.90;99.90;;;;;;5095172;28;20252;-79
2021/07/03 00:23:59;;;;;;;16.17;12.83;;;15.90;99.90;;;;;;5094841;28;20305;-79
2021/07/03 00:26:26;;;;;;;16.30;12.60;;;15.90;99.90;;;;;;5096506;28;20233;-80
2021/07/03 00:28:53;;;;;;;17.37;12.13;;;15.90;99.90;;;;;;5115124;28;20233;-80
2021/07/03 00:31:20;;;;;;;16.70;12.13;;;15.80;99.90;;;;;;5095990;28;20290;-80
2021/07/03 00:33:47;;;;;;;14.33;12.27;;;15.90;99.90;;;;;;5103410;28;20237;-80
2021/07/03 00:36:14;;;;;;;13.87;11.80;;;15.80;99.90;;;;;;5105992;28;20225;-80
2021/07/03 00:38:41;;;;;;;16.70;12.23;;;15.80;99.90;;;;;;5111517;28;20284;-80
2021/07/03 00:41:09;;;;;;;16.47;11.30;;;15.70;99.90;;;;;;5094283;28;20290;-79
2021/07/03 00:43:37;;;;;;;17.33;12.50;;;15.70;99.90;;;;;;5105633;28;20226;-80
2021/07/03 00:46:04;;;;;;;16.20;12.40;;;15.70;99.90;;;;;;5114992;27;20197;-80
2021/07/03 00:48:30;;;;;;;14.83;12.43;;;15.70;99.90;;;;;;5114028;28;20277;-79
2021/07/03 00:50:58;;;;;;;16.33;12.30;;;15.70;99.90;;;;;;5096041;28;20272;-80
2021/07/03 00:53:25;;;;;;;13.33;11.90;;;15.70;99.90;;;;;;5095128;28;20226;-79
2021/07/03 00:55:53;;;;;;;14.17;12.27;;;15.60;99.90;;;;;;5107543;28;20280;-79
2021/07/03 00:58:22;;;;;;;19.97;13.47;;;15.60;99.90;;;;;;5113587;28;20757;-79
2021/07/03 01:00:49;;;;;;;15.13;12.90;;;15.50;99.90;;;;;;5114431;28;20229;-79
2021/07/03 01:03:16;;;;;;;17.97;13.43;;;15.50;99.90;;;;;;5098364;28;20257;-79
2021/07/03 01:05:43;;;;;;;17.53;13.37;;;15.50;99.90;;;;;;5093620;28;20198;-79
2021/07/03 01:08:10;;;;;;;16.67;13.60;;;15.50;99.90;;;;;;5098488;28;20225;-79
2021/07/03 01:10:37;;;;;;;16.97;12.53;;;15.60;99.90;;;;;;5093640;28;20202;-79
2021/07/03 01:13:04;;;;;;;17.30;13.07;;;15.60;99.90;;;;;;5100000;28;20281;-79
2021/07/03 01:15:33;;;;;;;16.33;13.07;;;15.60;99.90;;;;;;5093928;28;20289;-80
2021/07/03 01:18:00;;;;;;;16.70;13.33;;;15.60;99.90;;;;;;5106426;28;20660;-79
2021/07/03 01:20:27;;;;;;;14.87;12.60;;;15.60;99.90;;;;;;5113657;28;20197;-79
2021/07/03 01:22:56;;;;;;;16.50;13.23;;;15.70;99.90;;;;;;5104992;28;20701;-79
2021/07/03 01:25:23;;;;;;;16.43;12.27;;;15.70;99.90;;;;;;5093947;28;20198;-79
2021/07/03 01:27:59;;;;;;;17.60;13.20;;;15.70;99.90;;;;;;5097172;28;20229;-79
2021/07/03 01:30:26;;;;;;;15.03;12.60;;;15.60;99.90;;;;;;5112473;28;20256;-80
2021/07/03 01:32:53;;;;;;;17.13;12.73;;;15.60;99.90;;;;;;5114278;28;20240;-80
2021/07/03 01:35:25;;;;;;;15.27;13.00;;;15.60;99.90;;;;;;5113952;28;20285;-79
2021/07/03 01:37:52;;;;;;;15.17;12.60;;;15.60;99.90;;;;;;5112165;28;20611;-80
2021/07/03 01:40:20;;;;;;;14.60;12.50;;;15.60;99.90;;;;;;5094119;28;20199;-80
2021/07/03 01:42:47;;;;;;;16.40;13.37;;;15.70;99.90;;;;;;5097173;28;20212;-79
2021/07/03 01:45:14;;;;;;;17.30;13.50;;;15.70;99.90;;;;;;5100142;28;20246;-79
2021/07/03 01:47:45;;;;;;;17.30;13.87;;;15.70;99.90;;;;;;5093080;28;20291;-78
2021/07/03 01:50:13;;;;;;;19.20;14.00;;;15.70;99.90;;;;;;5093731;28;20282;-79
2021/07/03 01:52:40;;;;;;;16.97;13.30;;;15.70;99.90;;;;;;5102409;28;20251;-79
2021/07/03 01:55:09;;;;;;;17.70;14.07;;;15.80;99.90;;;;;;5093529;28;20226;-79
2021/07/03 01:57:38;;;;;;;17.87;13.70;;;15.70;99.90;;;;;;5103187;28;20738;-79
2021/07/03 02:00:08;;;;;;;15.70;13.37;;;15.80;99.90;;;;;;5093368;28;20306;-79
2021/07/03 02:02:35;;;;;;;18.30;12.97;;;15.70;99.90;;;;;;5093100;28;20241;-79
2021/07/03 02:05:02;;;;;;;17.20;13.10;;;15.80;99.90;;;;;;5092705;28;20793;-79
2021/07/03 02:07:29;;;;;;;16.47;12.07;;;15.80;99.90;;;;;;5092847;28;20210;-80
2021/07/03 02:09:55;;;;;;;16.27;12.80;;;15.70;99.90;;;;;;5092124;28;20536;-79
2021/07/03 02:12:22;;;;;;;17.13;12.63;;;15.70;99.90;;;;;;5092968;28;20202;-79
2021/07/03 02:14:51;;;;;;;14.47;12.53;;;15.70;99.90;;;;;;5092338;28;20230;-79
2021/07/03 02:17:18;;;;;;;14.97;12.37;;;15.70;99.90;;;;;;5090980;28;20202;-79
2021/07/03 02:19:45;;;;;;;15.97;12.60;;;15.70;99.90;;;;;;5092611;28;20234;-79
2021/07/03 02:22:12;;;;;;;17.23;12.53;;;15.60;99.90;;;;;;5092669;28;20299;-79
2021/07/03 02:24:39;;;;;;;15.60;12.77;;;15.60;99.90;;;;;;5092518;28;20305;-79
2021/07/03 02:27:06;;;;;;;15.90;12.50;;;15.70;99.90;;;;;;5093289;28;20229;-79
2021/07/03 02:29:33;;;;;;;17.73;12.33;;;15.70;99.90;;;;;;5092941;28;20241;-79
2021/07/03 02:32:02;;;;;;;15.30;11.93;;;15.70;99.90;;;;;;5092507;28;20279;-79
2021/07/03 02:34:28;;;;;;;15.57;11.73;;;15.70;99.90;;;;;;5093300;28;20245;-79
2021/07/03 02:36:56;;;;;;;15.07;12.17;;;15.70;99.90;;;;;;5100463;28;20229;-79
2021/07/03 02:39:23;;;;;;;16.80;12.40;;;15.70;99.90;;;;;;5092065;28;20199;-79
2021/07/03 02:41:50;;;;;;;15.37;12.07;;;15.70;99.90;;;;;;5095656;28;20357;-79
2021/07/03 02:44:17;;;;;;;16.60;11.97;;;15.70;99.90;;;;;;5096201;28;20330;-79
2021/07/03 02:46:44;;;;;;;14.47;11.20;;;15.70;99.90;;;;;;5092315;28;20198;-79
2021/07/03 02:49:13;;;;;;;17.90;12.47;;;15.70;99.90;;;;;;5092393;28;20600;-79
2021/07/03 02:51:39;;;;;;;16.33;12.50;;;15.70;99.90;;;;;;5092145;28;20289;-79
2021/07/03 02:54:06;;;;;;;15.67;12.83;;;15.70;99.90;;;;;;5110367;28;20636;-79
2021/07/03 02:56:33;;;;;;;15.37;11.87;;;15.70;99.90;;;;;;5093674;28;20190;-79
2021/07/03 02:59:00;;;;;;;14.53;12.00;;;15.70;99.90;;;;;;5108908;28;20265;-79
2021/07/03 03:01:27;;;;;;;17.73;12.27;;;15.60;99.90;;;;;;5094352;28;20622;-79
2021/07/03 03:03:54;;;;;;;16.93;12.87;;;15.60;99.90;;;;;;5092286;28;20218;-79
2021/07/03 03:06:22;;;;;;;18.50;12.83;;;15.60;99.90;;;;;;5091856;28;20237;-79
2021/07/03 03:08:49;;;;;;;16.87;13.37;;;15.60;99.90;;;;;;5111216;28;20288;-79
2021/07/03 03:11:16;;;;;;;17.83;12.37;;;15.60;99.90;;;;;;5112469;28;20617;-79
2021/07/03 03:13:43;;;;;;;20.30;12.80;;;15.60;99.90;;;;;;5107043;28;20233;-79
2021/07/03 03:16:11;;;;;;;19.77;13.00;;;15.60;99.90;;;;;;5105686;28;20290;-79
2021/07/03 03:18:38;;;;;;;16.43;12.87;;;15.60;99.90;;;;;;5111549;28;20237;-79
2021/07/03 03:21:05;;;;;;;15.00;12.73;;;15.60;99.90;;;;;;5112185;28;20965;-79
2021/07/03 03:23:33;;;;;;;15.30;12.50;;;15.60;99.90;;;;;;5104496;28;20229;-79
2021/07/03 03:26:00;;;;;;;16.93;12.90;;;15.60;99.90;;;;;;5092050;28;20282;-79
2021/07/03 03:28:27;;;;;;;16.27;12.40;;;15.60;99.90;;;;;;5101327;28;20280;-79
2021/07/03 03:30:54;;;;;;;16.03;12.23;;;15.60;99.90;;;;;;5115931;28;20239;-79
2021/07/03 03:33:21;;;;;;;16.77;12.37;;;15.60;99.90;;;;;;5108269;28;20220;-79
2021/07/03 03:35:48;;;;;;;18.20;13.60;;;15.60;99.90;;;;;;5116120;28;20321;-79
2021/07/03 03:38:15;;;;;;;16.27;12.23;;;15.60;99.90;;;;;;5108261;28;20276;-79
2021/07/03 03:40:43;;;;;;;19.13;12.33;;;15.60;99.90;;;;;;5096269;28;20594;-79
2021/07/03 03:43:10;;;;;;;19.27;12.90;;;15.60;99.90;;;;;;5102779;28;20260;-79
2021/07/03 03:45:38;;;;;;;17.93;12.90;;;15.60;99.90;;;;;;5115994;28;20221;-79
2021/07/03 03:48:05;;;;;;;19.87;13.73;;;15.60;99.90;;;;;;5116077;28;20520;-79
2021/07/03 03:50:33;;;;;;;17.73;13.63;;;15.60;99.90;;;;;;5107323;28;20225;-79
2021/07/03 03:53:00;;;;;;;17.40;13.30;;;15.50;99.90;;;;;;5095821;28;20233;-79
2021/07/03 03:55:28;;;;;;;18.87;13.37;;;15.50;99.90;;;;;;5115485;28;20248;-79
2021/07/03 03:57:56;;;;;;;17.37;13.90;;;15.60;99.90;;;;;;5114330;28;20664;-79
2021/07/03 04:00:23;;;;;;;18.60;13.43;;;15.50;99.90;;;;;;5115007;28;20288;-79
2021/07/03 04:02:51;;;;;;;17.10;13.43;;;15.60;99.90;;;;;;5108866;28;20306;-78
2021/07/03 04:05:18;;;;;;;18.93;13.83;;;15.60;99.90;;;;;;5114131;28;20709;-79
2021/07/03 04:07:45;;;;;;;19.57;13.67;;;15.50;99.90;;;;;;5115578;28;20242;-79
2021/07/03 04:10:14;;;;;;;19.00;14.47;;;15.50;99.90;;;;;;5113929;28;20229;-79
2021/07/03 04:12:43;;;;;;;17.57;14.07;;;15.50;99.90;;;;;;5095882;28;20201;-79
2021/07/03 04:15:12;;;;;;;20.00;14.30;;;15.50;99.90;;;;;;5106363;28;20710;-79
2021/07/03 04:17:39;;;;;;;17.00;13.43;;;15.50;99.90;;;;;;5109525;28;20233;-79
2021/07/03 04:20:08;;;;;;;16.87;14.23;;;15.50;99.90;;;;;;5104912;28;20254;-79
2021/07/03 04:22:35;;;;;;;17.57;14.13;;;15.50;99.90;;;;;;5108630;28;20225;-79
2021/07/03 04:25:03;;;;;;;19.53;14.23;;;15.50;99.90;;;;;;5114567;28;20256;-79
2021/07/03 04:27:30;;;;;;;20.80;13.83;;;15.60;99.90;;;;;;5110143;28;20285;-79
2021/07/03 04:29:57;;;;;;;18.70;14.53;;;15.50;99.90;;;;;;5095374;28;20229;-79
2021/07/03 04:32:25;;;;;;;18.37;14.03;;;15.50;99.90;;;;;;5094753;28;20283;-79
2021/07/03 04:34:52;;;;;;;17.50;13.83;;;15.50;99.90;;;;;;5110828;28;20280;-79
2021/07/03 04:37:19;;;;;;;19.83;13.93;;;15.50;99.90;;;;;;5097992;28;20221;-79
2021/07/03 04:39:46;;;;;;;20.00;13.97;;;15.50;99.90;;;;;;5114267;28;20255;-79
2021/07/03 04:42:13;;;;;;;19.37;14.20;;;15.50;99.90;;;;;;5111536;28;20237;-79
2021/07/03 04:44:40;;;;;;;19.60;15.00;;;15.50;99.90;;;;;;5105906;27;20229;-79
2021/07/03 04:47:07;;;;;;;19.07;13.90;;;15.50;99.90;;;;;;5096019;28;20273;-79
2021/07/03 04:49:36;;;;;;;17.63;14.07;;;15.60;99.90;;;;;;5115150;28;20237;-79
2021/07/03 04:52:04;;;;;;;18.97;14.37;;;15.60;99.90;;;;;;5111130;27;20229;-79
2021/07/03 04:54:31;;;;;;;22.07;13.87;;;15.50;99.90;;;;;;5107851;28;20221;-79
2021/07/03 04:57:07;;;;;;;19.40;14.73;;;15.60;99.90;;;;;;5097684;28;20230;-79
2021/07/03 04:59:35;;;;;;;17.60;13.60;;;15.60;99.90;;;;;;5094603;28;20212;-79
2021/07/03 05:02:02;;;;;;;19.47;14.50;;;15.70;99.90;;;;;;5095375;28;20194;-79
2021/07/03 05:04:29;;;;;;;19.30;14.13;;;15.70;99.90;;;;;;5101827;28;20254;-79
2021/07/03 05:06:57;;;;;;;20.93;14.40;;;15.70;99.90;;;;;;5097476;28;20225;-79
2021/07/03 05:09:24;;;;;;;20.40;14.73;;;15.70;99.90;;;;;;5109890;28;20233;-79
2021/07/03 05:11:51;;;;;;;19.17;14.43;;;15.70;99.90;;;;;;5101778;28;20302;-79
2021/07/03 05:14:18;;;;;;;20.73;14.07;;;15.70;99.90;;;;;;5099915;28;20212;-79
2021/07/03 05:16:45;;;;;;;18.57;14.10;;;15.60;99.90;;;;;;5114245;28;20758;-79
2021/07/03 05:19:12;;;;;;;20.43;14.83;;;15.60;99.90;;;;;;5110372;28;20222;-79
2021/07/03 05:21:39;;;;;;;17.50;14.13;;;15.70;99.90;;;;;;5097880;28;20575;-79
2021/07/03 05:24:08;;;;;;;19.00;13.93;;;15.80;99.90;;;;;;5094905;28;20230;-80
2021/07/03 05:26:35;;;;;;;21.30;14.27;;;15.80;99.90;;;;;;5106088;28;20253;-79
2021/07/03 05:29:03;;;;;;;17.80;14.27;;;15.80;99.90;;;;;;5107594;28;20229;-79
2021/07/03 05:31:30;;;;;;;22.17;15.17;;;15.80;99.90;;;;;;5109869;28;20280;-79
2021/07/03 05:33:57;;;;;;;19.47;14.27;;;15.80;99.90;;;;;;5113962;28;20672;-79
2021/07/03 05:36:24;;;;;;;18.63;13.93;;;15.80;99.90;;;;;;5113571;28;20618;-79
2021/07/03 05:38:51;;;;;;;18.60;13.93;;;15.80;99.90;;;;;;5113993;28;20688;-79
2021/07/03 05:41:20;;;;;;;16.60;13.77;;;15.90;99.90;;;;;;5112589;27;20549;-79
2021/07/03 05:43:47;;;;;;;18.53;13.57;;;15.90;99.90;;;;;;5096535;28;20256;-79
2021/07/03 05:46:14;;;;;;;17.77;14.47;;;15.90;99.90;;;;;;5102978;28;20218;-79
2021/07/03 05:48:43;;;;;;;18.77;13.97;;;15.90;99.90;;;;;;5099544;28;20280;-79
2021/07/03 05:51:11;;;;;;;19.00;14.63;;;15.90;99.90;;;;;;5113781;28;20274;-79
2021/07/03 05:53:38;;;;;;;16.83;13.97;;;15.90;99.90;;;;;;5096924;28;20669;-79
2021/07/03 05:56:05;;;;;;;20.83;14.47;;;16.00;99.90;;;;;;5093197;28;20285;-79
2021/07/03 05:58:34;;;;;;;17.47;14.20;;;16.00;99.90;;;;;;5092840;28;20265;-79
2021/07/03 06:01:00;;;;;;;16.97;14.27;;;16.10;99.90;;;;;;5093678;28;20241;-79
2021/07/03 06:03:27;;;;;;;20.17;14.13;;;16.10;99.90;;;;;;5092654;28;20293;-79
2021/07/03 06:05:54;;;;;;;19.87;14.13;;;16.10;99.90;;;;;;5092456;28;20226;-79
2021/07/03 06:08:21;;;;;;;17.10;13.97;;;16.10;99.90;;;;;;5109877;28;20665;-79
2021/07/03 06:10:48;;;;;;;21.30;14.67;;;16.20;99.90;;;;;;5101410;28;20256;-79
2021/07/03 06:13:15;;;;;;;16.77;14.10;;;16.20;99.90;;;;;;5098206;28;20230;-79
2021/07/03 06:15:43;;;;;;;16.90;13.37;;;16.20;99.90;;;;;;5103050;28;20302;-79
2021/07/03 06:18:10;;;;;;;18.23;14.10;;;16.30;99.90;;;;;;5094895;28;20252;-79
2021/07/03 06:20:39;;;;;;;17.70;13.03;;;16.30;99.90;;;;;;5112984;28;20281;-79
2021/07/03 06:23:06;;;;;;;15.90;13.73;;;16.30;99.90;;;;;;5094591;28;20213;-79
2021/07/03 06:25:33;;;;;;;17.27;14.40;;;16.40;99.90;;;;;;5099758;28;20247;-79
2021/07/03 06:28:00;;;;;;;20.53;14.57;;;16.40;99.90;;;;;;5113157;28;20640;-79
2021/07/03 06:30:27;;;;;;;17.13;13.20;;;16.40;99.90;;;;;;5113366;28;20243;-79
2021/07/03 06:32:55;;;;;;;18.17;14.23;;;16.40;99.90;;;;;;5111031;28;20281;-80
2021/07/03 06:35:22;;;;;;;19.87;14.60;;;16.40;99.90;;;;;;5113000;28;20226;-78
2021/07/03 06:37:49;;;;;;;16.67;13.40;;;16.50;99.90;;;;;;5098438;28;20255;-77
2021/07/03 06:40:16;;;;;;;17.63;13.93;;;16.60;99.90;;;;;;5092246;28;20233;-77
2021/07/03 06:42:43;;;;;;;17.73;12.37;;;16.70;99.90;;;;;;5099365;28;20293;-77
2021/07/03 06:45:10;;;;;;;14.17;12.67;;;16.60;99.90;;;;;;5096505;28;20244;-78
2021/07/03 06:47:37;;;;;;;14.50;12.93;;;16.70;99.90;;;;;;5092399;28;20294;-77
2021/07/03 06:50:10;;;;;;;17.77;13.23;;;16.60;99.90;;;;;;5104168;28;20194;-80
2021/07/03 06:52:41;;;;;;;16.23;12.83;;;16.60;99.90;;;;;;5101054;28;20266;-79
2021/07/03 06:55:09;;;;;;;14.60;12.27;;;16.60;99.90;;;;;;5099274;28;20202;-80
2021/07/03 06:57:39;;;;;;;15.17;12.30;;;16.60;99.90;;;;;;5104123;28;20232;-79
2021/07/03 07:00:32;;;;;;;15.20;12.43;;;16.60;99.90;;;;;;5107581;28;20211;-81
2021/07/03 07:03:05;;;;;;;17.53;12.07;;;16.50;99.90;;;;;;5094879;28;20206;-80
2021/07/03 07:05:33;;;;;;;15.27;12.60;;;16.50;99.90;;;;;;5098710;28;20300;-79
2021/07/03 07:08:00;;;;;;;16.03;13.07;;;16.50;99.90;;;;;;5092575;28;20270;-83
2021/07/03 07:10:35;;;;;;;17.10;13.60;;;16.50;99.90;;;;;;5092196;28;20226;-83
2021/07/03 07:13:13;;;;;;;16.93;12.60;;;16.60;99.90;;;;;;5095427;28;20216;-84
2021/07/03 07:15:40;;;;;;;16.53;12.87;;;16.60;99.90;;;;;;5102454;28;20829;-79
2021/07/03 07:18:07;;;;;;;16.20;13.07;;;16.80;99.90;;;;;;5102686;28;20201;-82
2021/07/03 07:20:36;;;;;;;16.70;12.40;;;17.00;99.90;;;;;;5092355;28;20302;-82
2021/07/03 07:23:03;;;;;;;17.17;12.10;;;17.00;99.90;;;;;;5096133;28;20202;-81
2021/07/03 07:25:30;;;;;;;14.30;12.00;;;17.00;99.90;;;;;;5094346;28;20581;-82
2021/07/03 07:28:06;;;;;;;14.77;11.77;;;17.00;99.90;;;;;;5105974;28;20198;-82
2021/07/03 07:30:33;;;;;;;17.60;13.07;;;17.00;99.90;;;;;;5104238;28;20198;-83
2021/07/03 07:33:01;;;;;;;16.13;12.40;;;17.10;99.90;;;;;;5106257;28;20213;-83
2021/07/03 07:35:28;;;;;;;15.67;12.30;;;17.20;99.90;;;;;;5099232;28;20224;-82
2021/07/03 07:37:56;;;;;;;16.03;12.80;;;17.30;99.90;;;;;;5097392;28;20258;-82
2021/07/03 07:40:23;;;;;;;16.93;12.07;;;17.40;99.90;;;;;;5100708;28;20232;-82
2021/07/03 07:42:50;;;;;;;14.83;11.90;;;17.40;99.90;;;;;;5105758;28;20283;-82
2021/07/03 07:45:17;;;;;;;13.70;11.70;;;17.50;99.90;;;;;;5105313;28;20202;-80
2021/07/03 07:47:45;;;;;;;14.53;11.60;;;17.60;99.90;;;;;;5094854;28;20618;-80
2021/07/03 07:50:12;;;;;;;13.37;9.97;;;17.60;99.90;;;;;;5095448;28;20226;-81
2021/07/03 07:52:39;;;;;;;14.70;11.27;;;17.50;99.90;;;;;;5091112;28;20191;-80
2021/07/03 07:55:08;;;;;;;14.90;11.47;;;17.30;99.90;;;;;;5099434;28;20225;-80
2021/07/03 07:57:35;;;;;;;14.10;11.47;;;17.30;99.90;;;;;;5106096;28;20707;-82
2021/07/03 08:00:02;;;;;;;13.60;11.27;;;17.40;99.90;;;;;;5103487;28;20233;-81
2021/07/03 08:02:29;;;;;;;14.70;10.60;;;17.40;99.90;;;;;;5106046;28;20194;-82
2021/07/03 08:04:56;;;;;;;13.37;10.63;;;17.40;99.90;;;;;;5095275;28;20199;-81
2021/07/03 08:07:23;;;;;;;13.33;9.93;;;17.50;99.90;;;;;;5100154;28;20305;-80
2021/07/03 08:09:50;;;;;;;11.60;9.70;;;17.50;99.90;;;;;;5106783;28;20234;-80
2021/07/03 08:12:18;;;;;;;12.07;9.77;;;17.50;99.90;;;;;;5102425;28;20585;-82
2021/07/03 08:14:45;;;;;;;11.33;9.27;;;17.60;99.90;;;;;;5107826;28;20225;-82
2021/07/03 08:17:12;;;;;;;11.33;8.83;;;17.60;99.90;;;;;;5100230;28;20274;-81
2021/07/03 08:19:39;;;;;;;10.57;7.97;;;17.90;99.90;;;;;;5105127;28;20297;-82
2021/07/03 08:22:06;;;;;;;8.40;7.57;;;18.20;99.90;;;;;;5103151;28;20322;-81
2021/07/03 08:24:33;;;;;;;9.67;7.10;;;18.40;99.90;;;;;;5108285;28;20304;-81
2021/07/03 08:27:00;;;;;;;10.57;7.43;;;18.40;99.90;;;;;;5100925;28;20316;-80
2021/07/03 08:29:28;;;;;;;9.10;6.73;;;18.70;99.90;;;;;;5103705;28;20252;-83
2021/07/03 08:31:56;;;;;;;9.15;6.82;;;18.70;99.90;;;;;;5102966;28;20673;-81
2021/07/03 08:34:22;;;;;;;7.78;6.20;;;18.80;99.90;;;;;;5106081;28;20237;-81
2021/07/03 08:36:49;;;;;;;7.35;6.63;;;18.70;99.90;;;;;;5103977;28;20233;-82
2021/07/03 08:39:16;;;;;;;8.38;6.28;;;18.80;99.90;;;;;;5107759;28;20282;-82
2021/07/03 08:41:44;;;;;;;7.30;6.03;;;18.90;99.90;;;;;;5097069;28;20290;-82
2021/07/03 08:44:13;;;;;;;9.07;5.88;;;18.80;99.90;;;;;;5110310;28;20284;-82
2021/07/03 08:46:43;;;;;;;7.97;5.60;;;18.60;99.90;;;;;;5105175;28;20304;-82
2021/07/03 08:49:10;;;;;;;6.07;5.05;;;18.60;99.90;;;;;;5110193;28;20612;-82
2021/07/03 08:51:37;;;;;;;6.80;5.45;;;18.50;99.90;;;;;;5106227;28;20194;-82
2021/07/03 08:54:05;;;;;;;9.68;5.30;;;18.60;99.90;;;;;;5097088;28;20240;-82
2021/07/03 08:56:32;;;;;;;7.68;5.30;;;18.60;99.90;;;;;;5102180;28;20190;-82
2021/07/03 08:59:00;;;;;;;5.53;4.65;;;18.60;99.90;;;;;;5102322;28;20296;-82
2021/07/03 09:01:27;;;;;;;7.43;5.00;;;18.50;99.90;;;;;;5103053;28;20256;-82
2021/07/03 09:03:57;;;;;;;5.45;4.57;;;18.40;99.90;;;;;;5100696;28;20289;-82
2021/07/03 09:06:31;;;;;;;4.90;4.40;;;18.50;99.90;;;;;;5103598;27;20322;-82
2021/07/03 09:08:59;;;;;;;7.05;4.80;;;18.50;99.90;;;;;;5093794;28;20202;-82
2021/07/03 09:11:26;;;;;;;7.20;4.85;;;19.00;99.90;;;;;;5108755;28;20201;-82
2021/07/03 09:14:01;;;;;;;5.10;4.60;;;19.80;99.90;;;;;;5103591;28;20195;-82
2021/07/03 09:16:32;;;;;;;3.83;3.50;;;20.40;99.90;;;;;;5102331;28;20202;-82
2021/07/03 09:19:01;;;;;;;4.57;3.28;;;21.10;99.90;;;;;;5105436;28;20289;-82
2021/07/03 09:21:29;;;;;;;4.75;3.65;;;21.10;99.90;;;;;;5107036;28;20244;-83
2021/07/03 09:23:56;;;;;;;3.28;2.97;;;20.90;99.90;;;;;;5102276;28;20271;-82
2021/07/03 09:26:23;;;;;;;4.40;3.10;;;22.00;99.90;;;;;;5110335;28;20296;-82
2021/07/03 09:28:50;;;;;;;3.13;2.78;;;21.30;99.90;;;;;;5098880;28;20710;-83
2021/07/03 09:31:19;;;;;;;2.67;2.47;;;20.50;99.90;;;;;;5102887;28;20194;-82
2021/07/03 09:33:48;;;;;;;3.38;2.90;;;20.00;99.90;;;;;;5100691;28;20236;-82
2021/07/03 09:36:25;;;;;;;3.15;2.65;;;19.80;99.90;;;;;;5107172;27;20198;-82
2021/07/03 09:38:53;;;;;;;3.58;2.92;;;20.60;99.90;;;;;;5103828;28;20289;-82
2021/07/03 09:41:22;;;;;;;3.97;2.55;;;21.30;99.90;;;;;;5105581;27;20234;-82
2021/07/03 09:44:00;;;;;;;2.88;2.55;;;22.70;99.90;;;;;;5108220;27;20592;-82
2021/07/03 09:46:32;;;;;;;3.15;2.20;;;22.80;99.90;;;;;;5101105;28;20221;-82
2021/07/03 09:49:02;;;;;;;3.25;2.38;;;23.20;99.90;;;;;;5100447;28;20193;-83
2021/07/03 09:51:31;;;;;;;3.30;2.40;;;22.30;99.90;;;;;;5101397;28;20210;-82
2021/07/03 09:54:00;;;;;;;2.17;1.98;;;21.30;99.90;;;;;;5100646;28;20713;-83
2021/07/03 09:56:28;;;;;;;2.25;2.05;;;21.00;99.90;;;;;;5102642;28;20206;-82
2021/07/03 09:58:55;;;;;;;2.25;2.00;;;21.60;99.90;;;;;;5110294;27;20255;-82
2021/07/03 10:01:22;;;;;;;2.08;1.88;;;22.20;99.90;;;;;;5106972;28;20286;-82
2021/07/03 10:03:49;;;;;;;2.75;2.28;;;22.30;99.90;;;;;;5093943;28;20255;-82
2021/07/03 10:06:22;;;;;;;2.78;1.90;;;22.50;99.90;;;;;;5104890;28;20277;-82
2021/07/03 10:08:56;;;;;;;2.10;1.90;;;22.50;99.90;;;;;;5101300;28;20229;-82
2021/07/03 10:11:26;;;;;;;2.45;1.80;;;22.70;99.90;;;;;;5107067;28;20277;-82
2021/07/03 10:13:57;;;;;;;3.15;1.60;;;22.10;99.90;;;;;;5098913;27;20285;-83
2021/07/03 10:16:25;;;;;;;41.35;12.30;;;22.40;99.90;;;;;;5097133;28;20281;-81
2021/07/03 10:18:51;;;;;;;9.50;3.25;;;22.40;99.90;;;;;;5093864;28;20720;-81
2021/07/03 10:21:22;;;;;;;2.65;1.92;;;22.40;99.90;;;;;;5092319;28;20342;-81
2021/07/03 10:23:51;;;;;;;3.55;1.73;;;23.90;99.90;;;;;;5109678;28;20268;-82
2021/07/03 10:26:18;;;;;;;1.73;1.30;;;24.40;99.90;;;;;;5107869;28;20300;-84
2021/07/03 10:28:51;;;;;;;2.85;1.60;;;24.20;99.90;;;;;;5097749;27;20291;-82
2021/07/03 10:31:18;;;;;;;2.75;1.83;;;24.20;99.90;;;;;;5107664;28;20202;-84
2021/07/03 10:33:47;;;;;;;3.33;1.92;;;25.00;99.90;;;;;;5105666;28;20194;-82
2021/07/03 10:36:27;;;;;;;2.50;1.40;;;25.70;99.90;;;;;;5095094;28;20361;-83
2021/07/03 10:38:56;;;;;;;3.38;1.73;;;26.40;99.90;;;;;;5112172;28;20575;-84
2021/07/03 10:41:24;;;;;;;3.25;1.95;;;27.10;99.90;;;;;;5112137;28;20205;-83
2021/07/03 10:43:54;;;;;;;3.15;1.77;;;26.10;99.90;;;;;;5105922;28;20198;-82
2021/07/03 10:46:32;;;;;;;2.72;1.20;;;25.60;99.90;;;;;;5100541;28;20616;-82
2021/07/03 10:49:01;;;;;;;2.78;1.02;;;25.50;99.90;;;;;;5094230;28;20198;-83
2021/07/03 10:51:37;;;;;;;3.17;1.20;;;24.70;99.90;;;;;;5098723;28;20206;-81
2021/07/03 10:54:13;;;;;;;5.40;1.30;;;24.30;99.90;;;;;;5100461;28;20290;-81
2021/07/03 10:56:47;;;;;;;2.85;1.10;;;23.80;99.90;;;;;;5098840;28;20677;-81
2021/07/03 10:59:16;;;;;;;3.47;1.30;;;23.30;99.90;;;;;;5098151;28;20268;-82
2021/07/03 11:01:43;;;;;;;2.95;1.20;;;22.90;99.90;;;;;;5092294;28;20198;-82
2021/07/03 11:04:20;;;;;;;2.67;1.08;;;22.70;99.90;;;;;;5102916;28;20281;-80
2021/07/03 11:06:50;;;;;;;3.40;1.60;;;22.90;99.90;;;;;;5092233;28;20218;-82
2021/07/03 11:09:29;;;;;;;2.35;1.25;;;25.90;99.90;;;;;;5098260;28;20194;-83
2021/07/03 11:11:57;;;;;;;6.03;1.67;;;27.90;99.90;;;;;;5093926;28;20696;-84
2021/07/03 11:14:26;;;;;;;2.65;1.20;;;26.10;99.90;;;;;;5095565;28;20201;-82
2021/07/03 11:16:54;;;;;;;3.08;1.23;;;25.00;99.90;;;;;;5107396;28;20189;-82
2021/07/03 11:19:23;;;;;;;3.97;1.15;;;24.90;99.90;;;;;;5091514;28;20210;-83
2021/07/03 11:21:51;;;;;;;2.92;1.20;;;25.90;99.90;;;;;;5102712;28;20594;-83
2021/07/03 11:24:18;;;;;;;5.38;1.48;;;27.10;99.90;;;;;;5103009;28;20577;-84
2021/07/03 11:26:46;;;;;;;2.92;1.65;;;27.20;99.90;;;;;;5103852;28;20640;-83
2021/07/03 11:29:14;;;;;;;2.30;1.20;;;26.40;99.90;;;;;;5107557;28;20194;-88
2021/07/03 11:31:41;;;;;;;7.32;1.20;;;24.90;99.90;;;;;;5091902;28;20195;-85
2021/07/03 11:34:08;;;;;;;3.72;1.10;;;24.80;99.90;;;;;;5091684;28;20290;-85
2021/07/03 11:36:35;;;;;;;7.70;1.52;;;24.80;99.90;;;;;;5109209;28;20864;-85
2021/07/03 11:39:02;;;;;;;1.85;0.93;;;27.30;99.90;;;;;;5111068;28;20221;-88
2021/07/03 11:41:29;;;;;;;4.03;0.90;;;28.50;99.90;;;;;;5109271;28;20230;-85
2021/07/03 11:44:02;;;;;;;2.78;1.10;;;29.30;99.90;;;;;;5092842;28;20669;-87
2021/07/03 11:46:30;;;;;;;4.60;1.00;;;29.70;99.90;;;;;;5090693;28;20636;-85
2021/07/03 11:48:57;;;;;;;2.22;1.20;;;29.10;99.90;;;;;;5104532;28;20218;-84
2021/07/03 11:51:24;;;;;;;1.42;0.88;;;27.30;99.90;;;;;;5095956;28;20281;-85
2021/07/03 11:53:53;;;;;;;1.88;0.63;;;26.90;99.90;;;;;;5094910;28;20226;-85
2021/07/03 11:56:21;;;;;;;1.85;0.55;;;25.80;99.90;;;;;;5095514;28;20658;-88
2021/07/03 11:58:50;;;;;;;2.03;0.68;;;25.50;99.90;;;;;;5113492;28;20709;-87
2021/07/03 12:01:20;;;;;;;1.48;0.80;;;25.40;99.90;;;;;;5108404;28;20226;-87
2021/07/03 12:03:48;;;;;;;1.13;0.57;;;25.40;99.90;;;;;;5105274;28;20228;-86
2021/07/03 12:06:20;;;;;;;3.78;0.88;;;25.10;99.90;;;;;;5108701;28;20225;-85
2021/07/03 12:08:48;;;;;;;1.33;0.70;;;24.90;99.90;;;;;;5096210;28;20190;-85
2021/07/03 12:11:17;;;;;;;3.03;0.80;;;24.90;99.90;;;;;;5110209;27;20198;-84
2021/07/03 12:13:48;;;;;;;0.77;0.55;;;25.00;99.90;;;;;;5105754;28;20202;-84
2021/07/03 12:16:18;;;;;;;1.13;0.63;;;25.10;99.90;;;;;;5100304;28;20217;-84
2021/07/03 12:18:49;;;;;;;2.30;0.65;;;26.00;99.90;;;;;;5098757;28;20212;-83
2021/07/03 12:21:18;;;;;;;1.40;0.65;;;26.30;99.90;;;;;;5102677;28;20283;-83
2021/07/03 12:23:56;;;;;;;2.30;0.60;;;27.30;99.90;;;;;;5102884;28;20234;-81
2021/07/03 12:26:25;;;;;;;1.88;0.70;;;27.20;99.90;;;;;;5094648;28;20230;-84
2021/07/03 12:28:55;;;;;;;2.72;0.70;;;26.90;99.90;;;;;;5111188;28;20661;-83
2021/07/03 12:31:29;;;;;;;1.48;0.90;;;27.80;99.90;;;;;;5110207;28;20294;-83
2021/07/03 12:34:08;;;;;;;1.45;0.50;;;27.20;99.90;;;;;;5100722;28;20230;-83
2021/07/03 12:36:36;;;;;;;2.30;0.70;;;27.00;99.90;;;;;;5100503;28;20194;-85
2021/07/03 12:39:09;;;;;;;1.15;0.60;;;26.30;99.90;;;;;;5106497;28;20236;-85